EW8784 Zushi Kanagawa JP current weather conditions

sailwx.info

Wind from 215 at 6 knots gusting 9

Air temperature 26.1° C
Dewpoint 26.1° C

Last reported at 2020-Aug-08 17:05 UTC.
Time now 2020-Aug-08 18:15 UTC

Location: N 35°18' E 139°34'.
View on Google Maps.

See reports from other nearby stations

  
Tides and Currents Weather Stations Pressure Air Temp Water Temp Dewpoint Dewpoint Depression Visibility Wind Speed Wind Dir Waves Ship Positions
date/time (UTC)wind fromknots sea level pressurealtimeterstation pressurevisibilityair tempwater tempwave heightnotes
2020-Aug-08 17:05 215 6 gusting 9 26.1
2020-Aug-08 16:55 314 1 gusting 4 26.1
2020-Aug-08 16:50 224 3 gusting 6 26.1
2020-Aug-08 16:40 187 6 gusting 11 26.1
2020-Aug-08 16:35 181 5 gusting 8 26.1
2020-Aug-08 16:30 217 5 gusting 12 26.1
2020-Aug-08 16:25 159 4 gusting 7 26.1
2020-Aug-08 16:20 195 3 gusting 6 26.1
2020-Aug-08 16:15 340 2 gusting 5 26.1
2020-Aug-08 16:05 214 6 gusting 11 26.1
2020-Aug-08 16:00 174 6 gusting 9 26.1
2020-Aug-08 15:50 179 6 gusting 10 26.1
2020-Aug-08 15:45 181 6 gusting 9 26.1
2020-Aug-08 15:40 195 6 gusting 10 26.1
2020-Aug-08 15:35 079 2 gusting 5 26.1
2020-Aug-08 15:30 233 0 gusting 3 26.1
2020-Aug-08 15:25 305 2 gusting 6 26.1
2020-Aug-08 15:20 284 0 gusting 5 26.1
2020-Aug-08 15:10 056 1 gusting 4 26.1
2020-Aug-08 15:00 138 3 gusting 6 26.1
2020-Aug-08 14:55 008 2 gusting 7 26.1
2020-Aug-08 14:50 225 3 gusting 7 26.1
2020-Aug-08 14:45 201 5 gusting 12 26.1
2020-Aug-08 14:35 153 26.1
2020-Aug-08 14:30 038 1 gusting 5 26.1
2020-Aug-08 14:20 169 2 gusting 6 26.1
2020-Aug-08 14:15 076 1 gusting 5 26.1
2020-Aug-08 14:10 111 0 gusting 3 26.1
2020-Aug-08 14:00 323 1 gusting 3 26.1
2020-Aug-08 13:50 225 2 gusting 6 26.1
2020-Aug-08 13:45 184 1 gusting 3 26.1
2020-Aug-08 13:40 150 26.1
2020-Aug-08 13:35 235 1 gusting 5 26.1
2020-Aug-08 13:30 333 0 gusting 3 26.1
2020-Aug-08 13:25 170 0 gusting 3 26.1
2020-Aug-08 13:20 312 2 gusting 4 26.1
2020-Aug-08 13:15 114 0 gusting 5 26.1
2020-Aug-08 13:10 308 0 gusting 2 26.1
2020-Aug-08 13:05 340 0 gusting 1 26.1
2020-Aug-08 12:55 298 1 gusting 5 26.1
2020-Aug-08 12:50 138 0 gusting 6 26.1
2020-Aug-08 12:45 342 1 gusting 3 26.1
2020-Aug-08 12:40 142 2 gusting 6 26.1
2020-Aug-08 12:30 203 1 gusting 6 26.1
2020-Aug-08 12:25 056 3 gusting 10 26.1
2020-Aug-08 12:20 159 2 gusting 9 26.1
2020-Aug-08 12:10 158 1 gusting 4 26.7
2020-Aug-08 12:05 179 0 gusting 5 26.1
2020-Aug-08 12:00 170 1 gusting 2 26.7
2020-Aug-08 11:55 176 0 gusting 3 26.7
2020-Aug-08 11:50 152 2 gusting 5 26.7
2020-Aug-08 11:40 129 0 gusting 3 26.1
2020-Aug-08 11:30 122 3 gusting 6 26.7
2020-Aug-08 11:25 118 4 gusting 8 26.1
2020-Aug-08 11:15 190 2 gusting 7 26.7
2020-Aug-08 11:10 086 2 gusting 5 26.1
2020-Aug-08 11:05 159 0 gusting 5 26.7
2020-Aug-08 11:00 128 3 gusting 6 26.7
2020-Aug-08 10:55 177 3 gusting 8 26.7
2020-Aug-08 10:50 167 2 gusting 4 26.7
2020-Aug-08 10:45 188 4 gusting 7 26.7
2020-Aug-08 10:40 128 1 gusting 6 26.7
2020-Aug-08 10:30 125 3 gusting 7 26.7
2020-Aug-08 10:25 163 3 gusting 7 26.7
2020-Aug-08 10:20 148 1 gusting 5 26.7
2020-Aug-08 10:10 125 5 gusting 9 26.7
2020-Aug-08 10:05 248 26.7
2020-Aug-08 10:00 302 1 gusting 4 26.7
2020-Aug-08 09:50 004 0 gusting 3 26.7
2020-Aug-08 09:45 038 1 gusting 4 26.7
2020-Aug-08 09:40 217 0 gusting 2 27.2
2020-Aug-08 09:35 084 2 gusting 6 26.7
2020-Aug-08 09:30 321 26.7
2020-Aug-08 09:25 353 1 gusting 5 26.7
2020-Aug-08 09:15 352 2 gusting 5 27.2
2020-Aug-08 09:10 152 3 gusting 8 27.2
2020-Aug-08 09:05 134 3 gusting 6 27.2
2020-Aug-08 09:00 183 2 gusting 7 27.2
2020-Aug-08 08:50 345 1 gusting 4 27.2
2020-Aug-08 08:45 134 3 gusting 11 27.8
2020-Aug-08 08:35 079 2 gusting 5 27.2
2020-Aug-08 08:25 075 1 gusting 6 27.8
2020-Aug-08 08:20 314 4 gusting 12 27.8
2020-Aug-08 08:10 181 2 gusting 6 28.3
2020-Aug-08 08:05 201 4 gusting 11 27.8
2020-Aug-08 07:55 309 4 gusting 7 28.3
2020-Aug-08 07:50 011 2 gusting 3 28.3
2020-Aug-08 07:45 143 5 gusting 9 28.3
2020-Aug-08 07:40 062 4 gusting 9 28.3
2020-Aug-08 07:30 060 5 gusting 10 28.9
2020-Aug-08 07:25 280 4 gusting 7 28.9
2020-Aug-08 07:20 287 5 gusting 11 29.4
2020-Aug-08 07:15 323 6 gusting 10 28.9
2020-Aug-08 07:10 097 5 gusting 11 29.4
2020-Aug-08 07:00 191 4 gusting 7 29.4
2020-Aug-08 06:55 339 5 gusting 12 29.4
2020-Aug-08 06:45 284 3 gusting 7 29.4
2020-Aug-08 06:35 080 4 gusting 10 30.0
2020-Aug-08 06:30 271 6 gusting 8 30.6
2020-Aug-08 06:25 249 3 gusting 8 30.6
2020-Aug-08 06:20 339 3 gusting 6 30.6
2020-Aug-08 06:15 104 4 gusting 8 30.6
2020-Aug-08 06:10 225 5 gusting 8 30.6
2020-Aug-08 06:05 228 6 gusting 8 30.6
2020-Aug-08 05:55 004 4 gusting 7 31.1
2020-Aug-08 05:50 056 4 gusting 8 31.1
2020-Aug-08 05:45 056 4 gusting 8 31.1
2020-Aug-08 05:35 143 3 gusting 10 31.1
2020-Aug-08 05:30 136 5 gusting 12 30.6
2020-Aug-08 05:25 122 4 gusting 8 30.6
2020-Aug-08 05:20 180 5 gusting 13 30.6
2020-Aug-08 05:15 142 7 gusting 13 31.1
2020-Aug-08 05:10 172 5 gusting 8 31.1
2020-Aug-08 05:06 014 5 gusting 11 31.1
2020-Aug-08 05:00 108 6 gusting 15 30.6
2020-Aug-08 04:55 255 7 gusting 13 30.6
2020-Aug-08 04:50 304 6 gusting 10 30.6
2020-Aug-08 04:40 118 5 gusting 8 31.1
2020-Aug-08 04:30 128 6 gusting 12 31.1
2020-Aug-08 04:25 250 4 gusting 6 31.1
2020-Aug-08 04:20 111 5 gusting 9 30.6
2020-Aug-08 04:15 308 2 gusting 4 30.6
2020-Aug-08 04:05 152 6 gusting 8 30.6
2020-Aug-08 04:00 181 6 gusting 9 30.0
2020-Aug-08 03:55 090 6 gusting 10 30.0
2020-Aug-08 03:45 166 6 gusting 11 30.0
2020-Aug-08 03:40 146 6 gusting 8 30.0
2020-Aug-08 03:30 305 4 gusting 7 30.0
2020-Aug-08 03:20 190 6 gusting 9 29.4
2020-Aug-08 03:15 198 6 gusting 12 29.4
2020-Aug-08 03:10 184 8 gusting 10 29.4
2020-Aug-08 03:05 158 5 gusting 8 28.9
2020-Aug-08 03:00 149 8 gusting 12 29.4
2020-Aug-08 02:55 205 6 gusting 12 28.9
2020-Aug-08 02:45 266 6 gusting 11 28.3
2020-Aug-08 02:40 167 5 gusting 8 28.9
2020-Aug-08 02:30 187 6 gusting 13 28.9
2020-Aug-08 02:25 128 6 gusting 9 28.9
2020-Aug-08 02:20 184 5 gusting 7 28.9
2020-Aug-08 02:10 128 7 gusting 10 28.3
2020-Aug-08 02:05 176 6 gusting 10 28.3
2020-Aug-08 02:00 197 6 gusting 12 28.3
2020-Aug-08 01:50 176 3 gusting 6 27.8
2020-Aug-08 01:45 159 6 gusting 7 28.3
2020-Aug-08 01:35 172 5 gusting 9 28.3
2020-Aug-08 01:25 160 6 gusting 9 28.3
2020-Aug-08 01:15 179 4 gusting 8 28.3
2020-Aug-08 01:10 146 5 gusting 9 28.3
2020-Aug-08 01:05 180 6 gusting 9 28.3
2020-Aug-08 01:00 100 5 gusting 6 28.3
2020-Aug-08 00:50 155 6 gusting 8 28.3
2020-Aug-08 00:45 207 4 gusting 6 28.9
2020-Aug-08 00:40 172 4 gusting 7 28.3
2020-Aug-08 00:35 142 5 gusting 9 28.3
2020-Aug-08 00:30 156 6 gusting 8 28.3
2020-Aug-08 00:25 186 6 gusting 12 28.3
2020-Aug-08 00:15 158 5 gusting 9 28.3
2020-Aug-08 00:05 139 5 gusting 8 28.3
2020-Aug-07 23:55 167 3 gusting 6 28.3
2020-Aug-07 23:50 170 5 gusting 6 27.8
2020-Aug-07 23:45 170 6 gusting 9 28.3
2020-Aug-07 23:40 163 4 gusting 6 28.3
2020-Aug-07 23:30 166 4 gusting 6 28.3
2020-Aug-07 23:20 153 5 gusting 6 28.3
2020-Aug-07 23:15 160 4 gusting 5 28.3
2020-Aug-07 23:10 195 3 gusting 5 28.3
2020-Aug-07 23:05 170 2 gusting 3 28.3
2020-Aug-07 22:55 114 27.8
2020-Aug-07 22:50 174 1 gusting 3 27.8
2020-Aug-07 22:45 115 1 gusting 3 27.8
2020-Aug-07 22:35 034 27.8
2020-Aug-07 22:30 055 27.2
2020-Aug-07 22:20 044 0 gusting 3 27.2
2020-Aug-07 22:15 049 2 gusting 3 27.2
2020-Aug-07 22:05 017 26.7
2020-Aug-07 21:55 343 26.7
2020-Aug-07 21:50 023 0 gusting 2 26.7
2020-Aug-07 21:40 163 26.7
2020-Aug-07 21:30 163 26.1
2020-Aug-07 21:25 163 26.1
2020-Aug-07 21:20 163 26.1
2020-Aug-07 21:15 163 26.1
2020-Aug-07 21:05 163 25.6
2020-Aug-07 20:55 163 25.6
2020-Aug-07 20:50 163 25.6
2020-Aug-07 20:45 163 25.6
2020-Aug-07 20:40 163 25.6
2020-Aug-07 20:35 163 25.6
2020-Aug-07 20:30 163 25.6
2020-Aug-07 20:25 163 25.6
2020-Aug-07 20:20 163 25.6
2020-Aug-07 20:15 163 25.6
2020-Aug-07 20:10 163 25.6
2020-Aug-07 20:05 163 25.6
2020-Aug-07 19:55 163 25.6
2020-Aug-07 19:50 163 26.1
2020-Aug-07 19:45 163 26.1
2020-Aug-07 19:40 163 26.1
2020-Aug-07 19:35 163 26.1
2020-Aug-07 19:30 163 26.1
2020-Aug-07 19:25 163 26.1
2020-Aug-07 19:20 163 26.1
2020-Aug-07 19:15 163 26.1
2020-Aug-07 19:10 163 26.1
2020-Aug-07 19:00 163 26.1
2020-Aug-07 18:50 163 26.1
2020-Aug-07 18:45 163 26.1
2020-Aug-07 18:40 163 26.7
2020-Aug-07 18:30 163 26.1
2020-Aug-07 18:25 059 26.7
2020-Aug-07 18:20 059 26.1
2020-Aug-07 18:15 198 0 gusting 2 26.1
2020-Aug-07 18:05 165 26.7
2020-Aug-07 18:00 165 26.7
2020-Aug-07 17:55 219 0 gusting 3 26.7
2020-Aug-07 17:50 155 2 gusting 4 26.1
2020-Aug-07 17:45 232 3 gusting 6 26.1
2020-Aug-07 17:40 345 26.1
2020-Aug-07 17:35 345 26.1
2020-Aug-07 17:30 345 26.1
2020-Aug-07 17:25 011 26.1
2020-Aug-07 17:15 186 26.1
2020-Aug-07 17:05 186 26.7
2020-Aug-07 17:00 204 0 gusting 1 26.7
2020-Aug-07 16:50 195 0 gusting 1 26.7
2020-Aug-07 16:45 145 0 gusting 1 26.7
2020-Aug-07 16:40 252 5 gusting 7 26.7
2020-Aug-07 16:30 152 4 gusting 6 26.7
2020-Aug-07 16:25 172 1 gusting 4 26.7
2020-Aug-07 16:15 136 3 gusting 5 26.7
2020-Aug-07 16:10 128 1 gusting 5 26.1
2020-Aug-07 16:05 180 26.7
2020-Aug-07 15:55 219 0 gusting 3 26.7
2020-Aug-07 15:45 214 2 gusting 4 26.7
2020-Aug-07 15:35 193 0 gusting 1 26.7
2020-Aug-07 15:30 162 26.7
2020-Aug-07 15:25 221 3 gusting 5 26.7
2020-Aug-07 15:20 172 26.7
2020-Aug-07 15:10 146 26.7
2020-Aug-07 15:05 163 0 gusting 4 26.7
2020-Aug-07 15:00 165 0 gusting 2 26.7
2020-Aug-07 14:55 129 2 gusting 5 26.7
2020-Aug-07 14:50 143 26.7
2020-Aug-07 14:45 183 26.7
2020-Aug-07 14:35 149 1 gusting 3 26.7
2020-Aug-07 14:30 240 0 gusting 2 26.7
2020-Aug-07 14:25 184 0 gusting 2 26.7
2020-Aug-07 14:20 253 2 gusting 6 26.7
2020-Aug-07 14:15 176 2 gusting 6 26.7
2020-Aug-07 14:10 233 3 gusting 6 26.7
2020-Aug-07 14:05 217 3 gusting 5 26.7
2020-Aug-07 14:00 215 26.7
2020-Aug-07 13:50 221 26.7
2020-Aug-07 13:45 232 3 gusting 7 26.7
2020-Aug-07 13:40 072 1 gusting 6 26.7
2020-Aug-07 13:35 153 1 gusting 6 26.7
2020-Aug-07 13:25 159 4 gusting 7 26.7
2020-Aug-07 13:20 229 5 gusting 9 26.7
2020-Aug-07 13:15 167 4 gusting 6 26.7
2020-Aug-07 13:10 172 2 gusting 6 26.7
2020-Aug-07 13:05 107 4 gusting 6 26.7
2020-Aug-07 12:55 020 0 gusting 1 26.7
2020-Aug-07 12:50 114 2 gusting 6 26.7
2020-Aug-07 12:45 193 2 gusting 6 26.7
2020-Aug-07 12:35 159 2 gusting 4 26.7
2020-Aug-07 12:30 170 3 gusting 6 26.7
2020-Aug-07 12:25 280 1 gusting 4 26.7
2020-Aug-07 12:20 131 27.2
2020-Aug-07 12:15 231 2 gusting 4 27.2
2020-Aug-07 12:10 204 6 gusting 8 27.2
2020-Aug-07 12:05 180 5 gusting 8 27.2
2020-Aug-07 11:55 249 0 gusting 3 26.7
2020-Aug-07 11:50 293 0 gusting 1 27.2
2020-Aug-07 11:40 226 26.7
2020-Aug-07 11:35 136 2 gusting 5 26.7
2020-Aug-07 11:25 246 27.2
2020-Aug-07 11:20 063 0 gusting 3 27.2
2020-Aug-07 11:15 231 27.2
2020-Aug-07 11:10 094 2 gusting 6 26.7
2020-Aug-07 11:05 228 4 gusting 6 27.2
2020-Aug-07 11:00 210 2 gusting 5 27.2
2020-Aug-07 10:50 232 1 gusting 5 26.7
2020-Aug-07 10:45 273 0 gusting 3 27.2
2020-Aug-07 10:40 228 26.7
2020-Aug-07 10:35 001 26.7
2020-Aug-07 10:30 271 2 gusting 5 27.2
2020-Aug-07 10:20 231 0 gusting 4 27.2
2020-Aug-07 10:15 226 27.2
2020-Aug-07 10:05 174 5 gusting 8 27.2
2020-Aug-07 10:00 162 5 gusting 8 27.2
2020-Aug-07 09:50 121 3 gusting 9 26.7
2020-Aug-07 09:45 131 6 gusting 10 26.7
2020-Aug-07 09:40 153 5 gusting 7 26.7
2020-Aug-07 09:35 162 3 gusting 8 27.2
2020-Aug-07 09:30 314 2 gusting 5 27.2
2020-Aug-07 09:20 321 3 gusting 6 27.2
2020-Aug-07 09:15 108 3 gusting 7 27.2
2020-Aug-07 09:10 339 0 gusting 1 27.2
2020-Aug-07 09:00 122 2 gusting 6 27.8
2020-Aug-07 08:50 125 4 gusting 8 27.2
2020-Aug-07 08:40 148 4 gusting 7 27.8
2020-Aug-07 08:35 179 4 gusting 8 27.2
2020-Aug-07 08:30 077 1 gusting 6 27.2
2020-Aug-07 08:25 065 5 gusting 10 27.8
2020-Aug-07 08:15 160 6 gusting 13 27.8
2020-Aug-07 08:10 179 5 gusting 12 27.8
2020-Aug-07 08:00 190 5 gusting 9 27.8
2020-Aug-07 07:50 205 6 gusting 10 28.3
2020-Aug-07 07:45 166 6 gusting 11 28.3
2020-Aug-07 07:40 156 6 gusting 11 28.3
2020-Aug-07 07:30 142 5 gusting 12 28.3
2020-Aug-07 07:25 191 6 gusting 12 28.3
2020-Aug-07 07:15 156 4 gusting 8 28.9
2020-Aug-07 07:10 120 6 gusting 13 28.3
2020-Aug-07 07:05 124 6 gusting 13 28.9
2020-Aug-07 06:55 194 5 gusting 8 28.9
2020-Aug-07 06:45 056 7 gusting 14 28.9
2020-Aug-07 06:35 283 7 gusting 16 28.9
2020-Aug-07 06:30 134 6 gusting 12 28.9
2020-Aug-07 06:25 210 6 gusting 11 29.4
2020-Aug-07 06:15 176 8 gusting 14 29.4
2020-Aug-07 06:10 142 6 gusting 12 29.4
2020-Aug-07 06:00 194 6 gusting 13 29.4
2020-Aug-07 05:50 114 6 gusting 13 29.4
2020-Aug-07 05:40 146 6 gusting 10 29.4
2020-Aug-07 05:35 194 6 gusting 10 29.4
2020-Aug-07 05:30 142 8 gusting 11 29.4
2020-Aug-07 05:25 236 9 gusting 14 29.4
2020-Aug-07 05:20 169 8 gusting 14 29.4
2020-Aug-07 05:15 141 7 gusting 13 29.4
2020-Aug-07 05:05 122 6 gusting 10 29.4
2020-Aug-07 05:00 160 6 gusting 13 28.9
2020-Aug-07 04:55 158 5 gusting 11 28.9
2020-Aug-07 04:45 183 5 gusting 11 29.4
2020-Aug-07 04:40 142 6 gusting 13 29.4
2020-Aug-07 04:30 115 7 gusting 12 30.0
2020-Aug-07 04:25 170 6 gusting 12 30.0
2020-Aug-07 04:20 197 5 gusting 8 30.0
2020-Aug-07 04:15 160 6 gusting 11 30.0
2020-Aug-07 04:10 073 6 gusting 10 30.0
2020-Aug-07 04:05 176 6 gusting 11 30.0
2020-Aug-07 04:00 166 6 gusting 11 30.0
2020-Aug-07 03:50 105 6 gusting 13 30.0
2020-Aug-07 03:45 165 8 gusting 16 30.0
2020-Aug-07 03:40 165 7 gusting 13 30.0
2020-Aug-07 03:35 153 6 gusting 13 30.0
2020-Aug-07 03:30 211 6 gusting 11 30.0
2020-Aug-07 03:20 127 6 gusting 13 29.4
2020-Aug-07 03:15 131 6 gusting 11 29.4
2020-Aug-07 03:05 146 6 gusting 13 30.0
2020-Aug-07 03:00 165 6 gusting 10 29.4
2020-Aug-07 02:50 162 6 gusting 10 29.4
2020-Aug-07 02:45 188 6 gusting 9 29.4
2020-Aug-07 02:40 259 6 gusting 9 29.4
2020-Aug-07 02:35 159 7 gusting 11 30.0
2020-Aug-07 02:25 176 6 gusting 10 30.0
2020-Aug-07 02:20 187 6 gusting 10 29.4
2020-Aug-07 02:10 128 5 gusting 7 29.4
2020-Aug-07 02:05 125 5 gusting 6 29.4
2020-Aug-07 02:00 224 5 gusting 7 29.4
2020-Aug-07 01:50 146 6 gusting 9 29.4
2020-Aug-07 01:40 148 4 gusting 8 29.4
2020-Aug-07 01:30 115 6 gusting 10 29.4
2020-Aug-07 01:25 170 5 gusting 8 29.4
2020-Aug-07 01:20 145 4 gusting 8 29.4
2020-Aug-07 01:15 208 6 gusting 8 29.4
2020-Aug-07 01:05 243 6 gusting 9 28.9
2020-Aug-07 01:00 174 6 gusting 10 28.9
2020-Aug-07 00:55 165 6 gusting 10 28.9
2020-Aug-07 00:45 184 6 gusting 11 28.9
2020-Aug-07 00:40 198 6 gusting 10 28.9
2020-Aug-07 00:35 163 6 gusting 10 28.9
2020-Aug-07 00:25 335 6 gusting 13 28.3
2020-Aug-07 00:20 139 5 gusting 9 28.3
2020-Aug-07 00:15 190 4 gusting 9 28.3
2020-Aug-07 00:10 170 6 gusting 8 28.3
2020-Aug-07 00:05 170 6 gusting 8 27.8
2020-Aug-06 23:55 177 6 gusting 9 27.8
2020-Aug-06 23:50 114 5 gusting 7 27.8
2020-Aug-06 23:45 186 5 gusting 7 27.8
2020-Aug-06 23:40 150 6 gusting 7 27.8
2020-Aug-06 23:35 111 4 gusting 7 27.8
2020-Aug-06 23:25 165 5 gusting 7 27.2
2020-Aug-06 23:15 150 3 gusting 7 27.2
2020-Aug-06 23:05 183 5 gusting 8 27.2
2020-Aug-06 23:00 148 5 gusting 7 27.2
2020-Aug-06 22:50 238 2 gusting 3 27.2
2020-Aug-06 22:45 179 1 gusting 4 26.7
2020-Aug-06 22:40 166 3 gusting 7 26.7
2020-Aug-06 22:35 186 3 gusting 6 26.7
2020-Aug-06 22:25 174 0 gusting 2 26.7
2020-Aug-06 22:20 316 3 gusting 7 26.7
2020-Aug-06 22:10 226 2 gusting 6 26.1
2020-Aug-06 22:00 172 5 gusting 8 26.7
2020-Aug-06 21:50 263 2 gusting 6 26.1
2020-Aug-06 21:45 084 3 gusting 6 26.1
2020-Aug-06 21:40 239 3 gusting 6 26.1
2020-Aug-06 21:30 021 2 gusting 5 26.1
2020-Aug-06 21:25 276 1 gusting 4 26.1
2020-Aug-06 21:20 322 0 gusting 2 25.6
2020-Aug-06 21:15 084 0 gusting 3 25.6
2020-Aug-06 21:10 311 0 gusting 4 25.6
2020-Aug-06 21:00 304 2 gusting 4 25.6
2020-Aug-06 20:55 305 3 gusting 6 25.6
2020-Aug-06 20:50 240 0 gusting 4 25.6
2020-Aug-06 20:45 087 3 gusting 7 25.0
2020-Aug-06 20:40 117 2 gusting 5 25.0
2020-Aug-06 20:35 323 3 gusting 6 25.0
2020-Aug-06 20:30 076 2 gusting 9 25.6
2020-Aug-06 20:25 028 3 gusting 6 25.6
2020-Aug-06 20:20 062 3 gusting 8 25.0
2020-Aug-06 20:10 136 5 gusting 8 25.6
2020-Aug-06 20:00 172 3 gusting 7 25.6
2020-Aug-06 19:55 183 6 gusting 12 25.6
2020-Aug-06 19:50 093 4 gusting 8 25.6
2020-Aug-06 19:45 211 6 gusting 9 25.0
2020-Aug-06 19:35 091 4 gusting 8 25.6
2020-Aug-06 19:30 211 4 gusting 8 25.0
2020-Aug-06 19:20 226 0 gusting 3 25.6
2020-Aug-06 19:15 125 2 gusting 8 25.6
2020-Aug-06 19:05 200 5 gusting 8 25.0
2020-Aug-06 19:00 204 3 gusting 5 25.6
2020-Aug-06 18:55 138 3 gusting 8 25.6
2020-Aug-06 18:50 167 6 gusting 8 25.6
2020-Aug-06 18:45 145 1 gusting 6 25.0
2020-Aug-06 18:40 114 5 gusting 11 25.6
2020-Aug-06 18:30 197 4 gusting 11 25.6
2020-Aug-06 18:25 093 4 gusting 11 25.6
2020-Aug-06 18:20 046 2 gusting 6 25.6
2020-Aug-06 18:10 169 3 gusting 6 25.6
2020-Aug-06 18:05 170 2 gusting 6 25.6
2020-Aug-06 18:00 316 3 gusting 7 25.6